Detalii statie MOLDOVA TIGANASI [00001D08]

Toti senzorii

Date Temperatura solului [C]Precipitatii [mm]Voltaj baterie [mV]Leaf Wetness [Min]HC Air temperature [C]HC Relative humidity [%]Punctul de roua [C]
medieminmaxsumaultimatimpmedieminmaxmediemediemin
2018-02-23 13:00:00 0 -0.1 0.1 0 7372 -0.6 -0.7 -0.39 86.86 -2.4 -2.7
2018-02-23 14:00:00 0 -0.1 0.1 0 7362 -0.19 -0.46 0.08 84.46 -2.4 -2.6
2018-02-23 15:00:00 0 -0.1 0.1 0 7362 -0.84 -0.93 -0.44 90.46 -2.1 -2.5
2018-02-23 16:00:00 0 -0.1 0.1 0 7362 -0.8 -0.91 -0.71 90.84 -2 -2.1
2018-02-23 17:00:00 0 0 0 0 7362 -0.63 -0.77 -0.48 88.11 -2.2 -2.6
2018-02-23 18:00:00 0 -0.1 0 0 7070 -0.92 -1.09 -0.75 89.47 -2.3 -2.6
2018-02-23 19:00:00 0 -0.1 0.1 0 7030 -1.24 -1.42 -1.07 94.48 -1.9 -2.2
2018-02-23 20:00:00 0 0 0 0 7010 -1.39 -1.61 -1.24 98.46 -1.5 -1.7
2018-02-23 21:00:00 0 -0.1 0.1 0 7000 -1.69 -1.77 -1.62 100 -1.5 -1.6
2018-02-23 22:00:00 0 0 0.1 0 6992 -1.8 -1.84 -1.78 100 -1.6 -1.7
2018-02-23 23:00:00 0 0 0.2 0 6982 -1.83 -1.88 -1.8 100 -1.7 -1.7
2018-02-24 00:00:00 0 0 0.1 0 6972 -1.99 -2.05 -1.88 100 -1.8 -1.9
2018-02-24 01:00:00 0 0 0.1 0 6962 -2.08 -2.53 -1.96 100 -1.9 -2.4
2018-02-24 02:00:00 0 -0.1 0.2 0 6962 -2.64 -2.84 -2.51 100 -2.5 -2.7
2018-02-24 03:00:00 0 -0.1 0.1 0 6942 -2.57 -2.7 -2.44 100 -2.4 -2.6
2018-02-24 04:00:00 0 -0.1 0.1 0 6932 -2.38 -2.46 -2.35 100 -2.2 -2.3
2018-02-24 05:00:00 0 -0.1 0.2 0 6922 -2.55 -2.77 -2.35 100 -2.4 -2.6
2018-02-24 06:00:00 0 0 0.2 0 6904 -2.78 -2.83 -2.75 100 -2.6 -2.7
2018-02-24 07:00:00 0 0 0 0 6904 -3.14 -3.45 -2.84 100 -2.9 -3.3
2018-02-24 08:00:00 0 0 0.2 0 6894 -3.62 -3.73 -3.48 100 -3.4 -3.6
2018-02-24 09:00:00 0 0 0 0 7000 -3.73 -3.79 -3.69 100 -3.5 -3.6
2018-02-24 10:00:00 0 -0.1 0.2 0 7284 -3.94 -4.19 -3.77 100 -3.7 -4
2018-02-24 11:00:00 0 0 0.1 0 7362 -4.29 -4.54 -4.15 98.31 -4.4 -5.4
2018-02-24 12:00:00 0 0 0 0 7392 -4.51 -4.81 -4.33 92.57 -5.4 -6.1
2018-02-24 13:00:00 0 0 0.2 0 7392 -4.75 -4.99 -4.59 88.14 -6.3 -6.7
2018-02-24 14:00:00 0 0 0.2 0 7392 -4.53 -4.74 -4.19 85.38 -6.5 -6.7
2018-02-24 15:00:00 0 0 0.2 0 7362 -4.29 -4.42 -4.18 82.09 -6.7 -6.9
2018-02-24 16:00:00 0 -0.1 0 0 7284 -4.25 -4.42 -4.05 81.01 -6.9 -7.4
2018-02-24 17:00:00 0 -0.1 0.2 0 7352 -4.38 -4.51 -4.33 78.27 -7.5 -7.8
2018-02-24 18:00:00 0 -0.1 0.2 0 7098 -4.69 -5.2 -4.51 79.53 -7.6 -8.1
2018-02-24 19:00:00 0 0 0.1 0 7040 -6.42 -6.95 -5.31 84.89 -8.4 -8.9
2018-02-24 20:00:00 0 -0.1 0.1 0 7010 -6.27 -6.59 -5.86 80.86 -8.9 -9.4
2018-02-24 21:00:00 0 -0.1 0.2 0 6982 -7.2 -8.26 -6.34 78.05 -10.3 -11.4
2018-02-24 22:00:00 0 0 0.2 0 7000 -8.85 -9.13 -8.25 75.97 -12.2 -12.6
2018-02-24 23:00:00 0 0 0.2 0 6952 -9.73 -10.5 -8.76 79.11 -12.6 -13.2
2018-02-25 00:00:00 0 0 0.2 0 6982 -10.08 -10.24 -9.94 83.07 -12.3 -12.4
2018-02-25 01:00:00 0 0 0.2 0 6962 -10.36 -10.63 -10.09 84.58 -12.3 -12.6
2018-02-25 02:00:00 0 0 0.2 0 6894 -10.26 -10.51 -10.03 87.2 -11.8 -12.3
2018-02-25 03:00:00 0 0 0.2 0 6952 -10.17 -10.24 -10.12 88.05 -11.6 -11.8
2018-02-25 04:00:00 0 0 0.2 0 6884 -9.96 -10.3 -9.58 88.29 -11.4 -11.8
2018-02-25 05:00:00 0 -0.1 0 0 6874 -9.19 -9.4 -9.11 87.85 -10.8 -11.1
2018-02-25 06:00:00 0 0 0.1 0 6914 -9.07 -9.15 -9.01 88.79 -10.5 -10.8
2018-02-25 07:00:00 0 0 0.2 0 6874 -9.1 -9.15 -9.06 90.68 -10.2 -10.3
2018-02-25 08:00:00 0 -0.1 0.2 0 6952 -9.14 -9.22 -9.11 89.04 -10.5 -10.8
2018-02-25 09:00:00 0 -0.1 0 0 7324 -9.2 -9.35 -8.89 86.79 -10.9 -11.2
2018-02-25 10:00:00 0 0 0.1 0 7352 -8.52 -8.84 -8.18 87 -10.2 -10.6
2018-02-25 11:00:00 0 -0.1 0.1 0 7362 -7.67 -8.15 -7.02 86.07 -9.5 -9.8
2018-02-25 12:00:00 0 0 0.1 0 7392 -6.79 -6.94 -6.56 83.02 -9 -9.4